sensor_id;sensor_type;location;lat;lon;timestamp;P1;durP1;ratioP1;P2;durP2;ratioP2
69771;SDS011;57046;45.988;18.664;2022-07-26T00:02:23;4.70;;;3.38;;
69771;SDS011;57046;45.988;18.664;2022-07-26T00:04:49;6.90;;;3.37;;
69771;SDS011;57046;45.988;18.664;2022-07-26T00:07:14;5.40;;;3.00;;
69771;SDS011;57046;45.988;18.664;2022-07-26T00:09:40;4.63;;;3.30;;
69771;SDS011;57046;45.988;18.664;2022-07-26T00:12:05;4.93;;;3.20;;
69771;SDS011;57046;45.988;18.664;2022-07-26T00:14:31;4.33;;;3.03;;
69771;SDS011;57046;45.988;18.664;2022-07-26T00:16:56;5.80;;;3.33;;
69771;SDS011;57046;45.988;18.664;2022-07-26T00:19:22;6.60;;;3.20;;
69771;SDS011;57046;45.988;18.664;2022-07-26T00:21:47;7.37;;;3.47;;
69771;SDS011;57046;45.988;18.664;2022-07-26T00:24:12;4.40;;;3.50;;
69771;SDS011;57046;45.988;18.664;2022-07-26T00:26:38;3.90;;;3.37;;
69771;SDS011;57046;45.988;18.664;2022-07-26T00:29:03;4.53;;;3.33;;
69771;SDS011;57046;45.988;18.664;2022-07-26T00:31:30;5.45;;;2.80;;
69771;SDS011;57046;45.988;18.664;2022-07-26T00:33:56;5.50;;;3.30;;
69771;SDS011;57046;45.988;18.664;2022-07-26T00:36:21;5.50;;;3.67;;
69771;SDS011;57046;45.988;18.664;2022-07-26T00:38:47;5.37;;;3.20;;
69771;SDS011;57046;45.988;18.664;2022-07-26T00:41:12;5.00;;;3.30;;
69771;SDS011;57046;45.988;18.664;2022-07-26T00:43:51;4.97;;;2.97;;
69771;SDS011;57046;45.988;18.664;2022-07-26T00:46:21;4.55;;;3.08;;
69771;SDS011;57046;45.988;18.664;2022-07-26T00:48:46;7.33;;;3.40;;
69771;SDS011;57046;45.988;18.664;2022-07-26T00:51:11;4.50;;;3.40;;
69771;SDS011;57046;45.988;18.664;2022-07-26T00:53:37;3.73;;;2.80;;
69771;SDS011;57046;45.988;18.664;2022-07-26T00:56:02;5.10;;;3.30;;
69771;SDS011;57046;45.988;18.664;2022-07-26T00:58:28;4.88;;;3.20;;
69771;SDS011;57046;45.988;18.664;2022-07-26T01:00:53;5.27;;;3.20;;
69771;SDS011;57046;45.988;18.664;2022-07-26T01:03:18;4.97;;;3.43;;
69771;SDS011;57046;45.988;18.664;2022-07-26T01:05:44;4.53;;;3.50;;
69771;SDS011;57046;45.988;18.664;2022-07-26T01:08:09;4.22;;;3.20;;
69771;SDS011;57046;45.988;18.664;2022-07-26T01:10:35;3.97;;;3.40;;
69771;SDS011;57046;45.988;18.664;2022-07-26T01:13:00;3.77;;;2.93;;
69771;SDS011;57046;45.988;18.664;2022-07-26T01:15:25;4.65;;;3.65;;
69771;SDS011;57046;45.988;18.664;2022-07-26T01:17:51;4.47;;;3.20;;
69771;SDS011;57046;45.988;18.664;2022-07-26T01:20:16;4.77;;;3.37;;
69771;SDS011;57046;45.988;18.664;2022-07-26T01:22:41;5.27;;;3.43;;
69771;SDS011;57046;45.988;18.664;2022-07-26T01:25:07;6.50;;;3.50;;
69771;SDS011;57046;45.988;18.664;2022-07-26T01:27:33;6.45;;;3.47;;
69771;SDS011;57046;45.988;18.664;2022-07-26T01:29:59;4.60;;;3.40;;
69771;SDS011;57046;45.988;18.664;2022-07-26T01:32:24;5.20;;;3.47;;
69771;SDS011;57046;45.988;18.664;2022-07-26T01:34:49;7.33;;;3.87;;
69771;SDS011;57046;45.988;18.664;2022-07-26T01:37:15;5.53;;;3.00;;
69771;SDS011;57046;45.988;18.664;2022-07-26T01:39:40;5.60;;;3.53;;
69771;SDS011;57046;45.988;18.664;2022-07-26T01:42:06;5.73;;;3.00;;
69771;SDS011;57046;45.988;18.664;2022-07-26T01:44:31;4.73;;;3.67;;
69771;SDS011;57046;45.988;18.664;2022-07-26T01:46:56;5.00;;;4.40;;
69771;SDS011;57046;45.988;18.664;2022-07-26T01:49:21;8.03;;;4.20;;
69771;SDS011;57046;45.988;18.664;2022-07-26T01:51:47;9.07;;;4.10;;
69771;SDS011;57046;45.988;18.664;2022-07-26T01:54:12;6.47;;;4.50;;
69771;SDS011;57046;45.988;18.664;2022-07-26T01:56:38;5.07;;;4.20;;
69771;SDS011;57046;45.988;18.664;2022-07-26T01:59:03;5.33;;;4.10;;
69771;SDS011;57046;45.988;18.664;2022-07-26T02:01:29;7.35;;;4.10;;
69771;SDS011;57046;45.988;18.664;2022-07-26T02:03:54;10.33;;;4.13;;
69771;SDS011;57046;45.988;18.664;2022-07-26T02:06:20;5.27;;;3.50;;
69771;SDS011;57046;45.988;18.664;2022-07-26T02:08:46;5.60;;;4.60;;
69771;SDS011;57046;45.988;18.664;2022-07-26T02:11:11;6.60;;;4.37;;
69771;SDS011;57046;45.988;18.664;2022-07-26T02:13:38;6.22;;;3.72;;
69771;SDS011;57046;45.988;18.664;2022-07-26T02:16:06;6.47;;;4.32;;
69771;SDS011;57046;45.988;18.664;2022-07-26T02:18:34;5.37;;;4.30;;
69771;SDS011;57046;45.988;18.664;2022-07-26T02:20:59;6.68;;;4.18;;
69771;SDS011;57046;45.988;18.664;2022-07-26T02:23:26;6.50;;;4.15;;
69771;SDS011;57046;45.988;18.664;2022-07-26T02:25:53;6.28;;;4.10;;
69771;SDS011;57046;45.988;18.664;2022-07-26T02:28:19;7.47;;;4.67;;
69771;SDS011;57046;45.988;18.664;2022-07-26T02:30:44;7.68;;;4.47;;
69771;SDS011;57046;45.988;18.664;2022-07-26T02:33:10;6.38;;;4.25;;
69771;SDS011;57046;45.988;18.664;2022-07-26T02:35:35;5.77;;;3.97;;
69771;SDS011;57046;45.988;18.664;2022-07-26T02:38:02;5.50;;;4.07;;
69771;SDS011;57046;45.988;18.664;2022-07-26T02:40:28;8.75;;;4.20;;
69771;SDS011;57046;45.988;18.664;2022-07-26T02:42:54;6.07;;;4.20;;
69771;SDS011;57046;45.988;18.664;2022-07-26T02:45:19;6.33;;;4.40;;
69771;SDS011;57046;45.988;18.664;2022-07-26T02:47:45;6.33;;;4.77;;
69771;SDS011;57046;45.988;18.664;2022-07-26T02:50:14;12.38;;;4.47;;
69771;SDS011;57046;45.988;18.664;2022-07-26T02:52:40;5.03;;;3.47;;
69771;SDS011;57046;45.988;18.664;2022-07-26T02:55:06;4.97;;;3.53;;
69771;SDS011;57046;45.988;18.664;2022-07-26T02:57:32;6.67;;;4.30;;
69771;SDS011;57046;45.988;18.664;2022-07-26T02:59:57;7.90;;;4.20;;
69771;SDS011;57046;45.988;18.664;2022-07-26T03:02:22;5.13;;;3.43;;
69771;SDS011;57046;45.988;18.664;2022-07-26T03:04:48;5.63;;;4.07;;
69771;SDS011;57046;45.988;18.664;2022-07-26T03:07:13;7.30;;;4.47;;
69771;SDS011;57046;45.988;18.664;2022-07-26T03:09:38;7.13;;;4.23;;
69771;SDS011;57046;45.988;18.664;2022-07-26T03:12:03;5.87;;;4.50;;
69771;SDS011;57046;45.988;18.664;2022-07-26T03:14:29;8.10;;;4.03;;
69771;SDS011;57046;45.988;18.664;2022-07-26T03:16:54;6.07;;;4.20;;
69771;SDS011;57046;45.988;18.664;2022-07-26T03:19:20;6.40;;;4.40;;
69771;SDS011;57046;45.988;18.664;2022-07-26T03:21:45;6.53;;;4.33;;
69771;SDS011;57046;45.988;18.664;2022-07-26T03:24:10;7.83;;;4.33;;
69771;SDS011;57046;45.988;18.664;2022-07-26T03:26:36;6.05;;;4.55;;
69771;SDS011;57046;45.988;18.664;2022-07-26T03:29:01;7.70;;;4.57;;
69771;SDS011;57046;45.988;18.664;2022-07-26T03:31:26;6.23;;;4.73;;
69771;SDS011;57046;45.988;18.664;2022-07-26T03:33:52;7.63;;;4.70;;
69771;SDS011;57046;45.988;18.664;2022-07-26T03:36:17;7.70;;;5.20;;
69771;SDS011;57046;45.988;18.664;2022-07-26T03:38:42;7.00;;;4.30;;
69771;SDS011;57046;45.988;18.664;2022-07-26T03:41:08;7.60;;;4.97;;
69771;SDS011;57046;45.988;18.664;2022-07-26T03:43:33;9.73;;;5.00;;
69771;SDS011;57046;45.988;18.664;2022-07-26T03:45:58;7.20;;;4.37;;
69771;SDS011;57046;45.988;18.664;2022-07-26T03:48:23;8.40;;;4.80;;
69771;SDS011;57046;45.988;18.664;2022-07-26T03:50:49;8.47;;;4.63;;
69771;SDS011;57046;45.988;18.664;2022-07-26T03:53:14;6.72;;;4.45;;
69771;SDS011;57046;45.988;18.664;2022-07-26T03:55:39;5.97;;;4.33;;
69771;SDS011;57046;45.988;18.664;2022-07-26T03:58:05;6.30;;;4.67;;
69771;SDS011;57046;45.988;18.664;2022-07-26T04:00:30;6.77;;;4.50;;
69771;SDS011;57046;45.988;18.664;2022-07-26T04:02:55;8.90;;;5.07;;
69771;SDS011;57046;45.988;18.664;2022-07-26T04:05:21;6.97;;;5.10;;
69771;SDS011;57046;45.988;18.664;2022-07-26T04:07:47;6.10;;;4.40;;
69771;SDS011;57046;45.988;18.664;2022-07-26T04:10:12;10.60;;;5.10;;
69771;SDS011;57046;45.988;18.664;2022-07-26T04:12:37;8.93;;;5.33;;
69771;SDS011;57046;45.988;18.664;2022-07-26T04:15:03;6.93;;;5.40;;
69771;SDS011;57046;45.988;18.664;2022-07-26T04:17:35;13.15;;;4.93;;
69771;SDS011;57046;45.988;18.664;2022-07-26T04:20:03;8.27;;;5.50;;
69771;SDS011;57046;45.988;18.664;2022-07-26T04:22:29;7.90;;;5.43;;
69771;SDS011;57046;45.988;18.664;2022-07-26T04:24:54;6.80;;;5.25;;
69771;SDS011;57046;45.988;18.664;2022-07-26T04:27:19;8.80;;;5.40;;
69771;SDS011;57046;45.988;18.664;2022-07-26T04:29:45;7.23;;;4.57;;
69771;SDS011;57046;45.988;18.664;2022-07-26T04:32:10;8.00;;;5.60;;
69771;SDS011;57046;45.988;18.664;2022-07-26T04:34:35;6.83;;;5.20;;
69771;SDS011;57046;45.988;18.664;2022-07-26T04:37:01;8.53;;;5.10;;
69771;SDS011;57046;45.988;18.664;2022-07-26T04:39:26;9.52;;;5.40;;
69771;SDS011;57046;45.988;18.664;2022-07-26T04:41:51;8.07;;;4.47;;
69771;SDS011;57046;45.988;18.664;2022-07-26T04:44:16;7.80;;;5.30;;
69771;SDS011;57046;45.988;18.664;2022-07-26T04:46:42;9.47;;;5.53;;
69771;SDS011;57046;45.988;18.664;2022-07-26T04:49:07;10.60;;;5.83;;
69771;SDS011;57046;45.988;18.664;2022-07-26T04:51:32;7.73;;;5.63;;
69771;SDS011;57046;45.988;18.664;2022-07-26T04:53:58;9.43;;;5.63;;
69771;SDS011;57046;45.988;18.664;2022-07-26T04:56:23;13.10;;;5.93;;
69771;SDS011;57046;45.988;18.664;2022-07-26T04:58:48;9.30;;;5.40;;
69771;SDS011;57046;45.988;18.664;2022-07-26T05:01:14;8.60;;;5.50;;
69771;SDS011;57046;45.988;18.664;2022-07-26T05:03:39;8.15;;;6.15;;
69771;SDS011;57046;45.988;18.664;2022-07-26T05:06:04;12.07;;;5.90;;
69771;SDS011;57046;45.988;18.664;2022-07-26T05:08:30;7.33;;;5.33;;
69771;SDS011;57046;45.988;18.664;2022-07-26T05:10:55;9.13;;;5.80;;
69771;SDS011;57046;45.988;18.664;2022-07-26T05:13:21;9.13;;;5.00;;
69771;SDS011;57046;45.988;18.664;2022-07-26T05:15:46;7.83;;;5.10;;
69771;SDS011;57046;45.988;18.664;2022-07-26T05:18:12;6.03;;;4.73;;
69771;SDS011;57046;45.988;18.664;2022-07-26T05:20:37;7.30;;;5.80;;
69771;SDS011;57046;45.988;18.664;2022-07-26T05:23:02;6.07;;;4.88;;
69771;SDS011;57046;45.988;18.664;2022-07-26T05:25:28;8.53;;;5.03;;
69771;SDS011;57046;45.988;18.664;2022-07-26T05:27:53;8.27;;;4.73;;
69771;SDS011;57046;45.988;18.664;2022-07-26T05:30:19;5.30;;;4.13;;
69771;SDS011;57046;45.988;18.664;2022-07-26T05:32:44;9.57;;;4.53;;
69771;SDS011;57046;45.988;18.664;2022-07-26T05:35:10;7.63;;;4.50;;
69771;SDS011;57046;45.988;18.664;2022-07-26T05:37:35;12.17;;;5.23;;
69771;SDS011;57046;45.988;18.664;2022-07-26T05:40:02;6.88;;;4.03;;
69771;SDS011;57046;45.988;18.664;2022-07-26T05:42:29;7.57;;;4.30;;
69771;SDS011;57046;45.988;18.664;2022-07-26T05:44:54;6.23;;;3.77;;
69771;SDS011;57046;45.988;18.664;2022-07-26T05:47:19;5.00;;;4.00;;
69771;SDS011;57046;45.988;18.664;2022-07-26T05:49:49;7.82;;;3.75;;
69771;SDS011;57046;45.988;18.664;2022-07-26T05:52:14;8.70;;;4.37;;
69771;SDS011;57046;45.988;18.664;2022-07-26T05:54:40;7.00;;;4.27;;
69771;SDS011;57046;45.988;18.664;2022-07-26T05:57:05;6.33;;;3.93;;
69771;SDS011;57046;45.988;18.664;2022-07-26T05:59:30;9.73;;;4.23;;
69771;SDS011;57046;45.988;18.664;2022-07-26T06:01:56;12.32;;;4.53;;
69771;SDS011;57046;45.988;18.664;2022-07-26T06:04:22;6.37;;;4.07;;
69771;SDS011;57046;45.988;18.664;2022-07-26T06:06:48;8.07;;;4.70;;
69771;SDS011;57046;45.988;18.664;2022-07-26T06:09:14;12.13;;;4.47;;
69771;SDS011;57046;45.988;18.664;2022-07-26T06:11:40;5.43;;;4.32;;
69771;SDS011;57046;45.988;18.664;2022-07-26T06:14:05;7.03;;;4.50;;
69771;SDS011;57046;45.988;18.664;2022-07-26T06:16:30;5.77;;;4.20;;
69771;SDS011;57046;45.988;18.664;2022-07-26T06:18:56;4.93;;;4.28;;
69771;SDS011;57046;45.988;18.664;2022-07-26T06:21:21;5.77;;;4.33;;
69771;SDS011;57046;45.988;18.664;2022-07-26T06:23:47;6.07;;;3.77;;
69771;SDS011;57046;45.988;18.664;2022-07-26T06:26:12;5.97;;;3.92;;
69771;SDS011;57046;45.988;18.664;2022-07-26T06:28:37;4.97;;;4.47;;
69771;SDS011;57046;45.988;18.664;2022-07-26T06:31:03;5.27;;;3.87;;
69771;SDS011;57046;45.988;18.664;2022-07-26T06:33:30;5.70;;;4.03;;
69771;SDS011;57046;45.988;18.664;2022-07-26T06:35:59;6.18;;;4.05;;
69771;SDS011;57046;45.988;18.664;2022-07-26T06:38:26;6.50;;;4.13;;
69771;SDS011;57046;45.988;18.664;2022-07-26T06:40:53;8.82;;;4.43;;
69771;SDS011;57046;45.988;18.664;2022-07-26T06:43:19;6.97;;;4.30;;
69771;SDS011;57046;45.988;18.664;2022-07-26T06:45:44;4.53;;;4.05;;
69771;SDS011;57046;45.988;18.664;2022-07-26T06:48:10;5.03;;;3.97;;
69771;SDS011;57046;45.988;18.664;2022-07-26T06:50:35;6.60;;;5.07;;
69771;SDS011;57046;45.988;18.664;2022-07-26T06:53:00;9.43;;;4.83;;
69771;SDS011;57046;45.988;18.664;2022-07-26T06:55:26;10.53;;;5.07;;
69771;SDS011;57046;45.988;18.664;2022-07-26T06:57:51;5.97;;;4.07;;
69771;SDS011;57046;45.988;18.664;2022-07-26T07:00:16;7.10;;;4.73;;
69771;SDS011;57046;45.988;18.664;2022-07-26T07:02:42;7.00;;;4.53;;
69771;SDS011;57046;45.988;18.664;2022-07-26T07:05:07;5.85;;;4.20;;
69771;SDS011;57046;45.988;18.664;2022-07-26T07:07:34;8.17;;;4.33;;
69771;SDS011;57046;45.988;18.664;2022-07-26T07:09:59;4.63;;;3.75;;
69771;SDS011;57046;45.988;18.664;2022-07-26T07:12:25;5.70;;;4.50;;
69771;SDS011;57046;45.988;18.664;2022-07-26T07:14:50;7.67;;;4.40;;
69771;SDS011;57046;45.988;18.664;2022-07-26T07:17:17;7.97;;;4.40;;
69771;SDS011;57046;45.988;18.664;2022-07-26T07:19:43;8.33;;;4.00;;
69771;SDS011;57046;45.988;18.664;2022-07-26T07:22:09;5.55;;;4.18;;
69771;SDS011;57046;45.988;18.664;2022-07-26T07:24:34;4.37;;;3.93;;
69771;SDS011;57046;45.988;18.664;2022-07-26T07:26:59;6.73;;;4.07;;
69771;SDS011;57046;45.988;18.664;2022-07-26T07:29:25;8.40;;;4.00;;
69771;SDS011;57046;45.988;18.664;2022-07-26T07:31:50;7.15;;;4.47;;
69771;SDS011;57046;45.988;18.664;2022-07-26T07:34:16;6.73;;;4.20;;
69771;SDS011;57046;45.988;18.664;2022-07-26T07:36:42;6.18;;;4.07;;
69771;SDS011;57046;45.988;18.664;2022-07-26T07:39:08;6.03;;;4.47;;
69771;SDS011;57046;45.988;18.664;2022-07-26T07:41:33;6.13;;;4.20;;
69771;SDS011;57046;45.988;18.664;2022-07-26T07:43:59;8.30;;;3.93;;
69771;SDS011;57046;45.988;18.664;2022-07-26T07:46:24;8.18;;;4.70;;
69771;SDS011;57046;45.988;18.664;2022-07-26T07:48:50;8.00;;;5.23;;
69771;SDS011;57046;45.988;18.664;2022-07-26T07:51:19;6.10;;;4.70;;
69771;SDS011;57046;45.988;18.664;2022-07-26T07:53:44;6.57;;;4.25;;
69771;SDS011;57046;45.988;18.664;2022-07-26T07:56:10;7.60;;;5.10;;
69771;SDS011;57046;45.988;18.664;2022-07-26T07:58:35;11.93;;;4.67;;
69771;SDS011;57046;45.988;18.664;2022-07-26T08:01:00;6.77;;;4.00;;
69771;SDS011;57046;45.988;18.664;2022-07-26T08:03:26;6.33;;;4.33;;
69771;SDS011;57046;45.988;18.664;2022-07-26T08:05:51;5.33;;;4.30;;
69771;SDS011;57046;45.988;18.664;2022-07-26T08:08:17;6.17;;;3.97;;
69771;SDS011;57046;45.988;18.664;2022-07-26T08:10:45;10.93;;;4.27;;
69771;SDS011;57046;45.988;18.664;2022-07-26T08:13:11;5.50;;;4.25;;
69771;SDS011;57046;45.988;18.664;2022-07-26T08:15:36;6.53;;;4.03;;
69771;SDS011;57046;45.988;18.664;2022-07-26T08:18:02;5.87;;;4.30;;
69771;SDS011;57046;45.988;18.664;2022-07-26T08:20:27;8.73;;;4.60;;
69771;SDS011;57046;45.988;18.664;2022-07-26T08:22:53;6.43;;;4.53;;
69771;SDS011;57046;45.988;18.664;2022-07-26T08:25:18;4.97;;;4.23;;
69771;SDS011;57046;45.988;18.664;2022-07-26T08:27:44;8.88;;;4.25;;
69771;SDS011;57046;45.988;18.664;2022-07-26T08:30:09;11.60;;;4.03;;
69771;SDS011;57046;45.988;18.664;2022-07-26T08:32:35;6.38;;;4.40;;
69771;SDS011;57046;45.988;18.664;2022-07-26T08:35:00;7.97;;;4.07;;
69771;SDS011;57046;45.988;18.664;2022-07-26T08:37:30;5.03;;;4.10;;
69771;SDS011;57046;45.988;18.664;2022-07-26T08:39:56;9.00;;;4.17;;
69771;SDS011;57046;45.988;18.664;2022-07-26T08:42:21;6.43;;;4.10;;
69771;SDS011;57046;45.988;18.664;2022-07-26T08:44:46;7.33;;;4.10;;
69771;SDS011;57046;45.988;18.664;2022-07-26T08:47:13;8.13;;;4.20;;
69771;SDS011;57046;45.988;18.664;2022-07-26T08:49:41;5.72;;;3.85;;
69771;SDS011;57046;45.988;18.664;2022-07-26T08:52:06;5.40;;;4.27;;
69771;SDS011;57046;45.988;18.664;2022-07-26T08:54:32;5.95;;;4.07;;
69771;SDS011;57046;45.988;18.664;2022-07-26T08:56:58;5.65;;;3.70;;
69771;SDS011;57046;45.988;18.664;2022-07-26T08:59:23;8.23;;;3.90;;
69771;SDS011;57046;45.988;18.664;2022-07-26T09:01:56;5.30;;;4.03;;
69771;SDS011;57046;45.988;18.664;2022-07-26T09:04:26;5.27;;;3.93;;
69771;SDS011;57046;45.988;18.664;2022-07-26T09:06:56;6.88;;;3.85;;
69771;SDS011;57046;45.988;18.664;2022-07-26T09:09:28;8.05;;;3.75;;
69771;SDS011;57046;45.988;18.664;2022-07-26T09:11:54;5.18;;;4.25;;
69771;SDS011;57046;45.988;18.664;2022-07-26T09:14:21;5.20;;;4.25;;
69771;SDS011;57046;45.988;18.664;2022-07-26T09:16:57;5.07;;;3.90;;
69771;SDS011;57046;45.988;18.664;2022-07-26T09:19:23;3.92;;;3.63;;
69771;SDS011;57046;45.988;18.664;2022-07-26T09:21:49;6.60;;;4.63;;
69771;SDS011;57046;45.988;18.664;2022-07-26T09:24:31;5.67;;;3.90;;
69771;SDS011;57046;45.988;18.664;2022-07-26T09:26:59;6.28;;;3.95;;
69771;SDS011;57046;45.988;18.664;2022-07-26T09:29:25;6.38;;;4.05;;
69771;SDS011;57046;45.988;18.664;2022-07-26T09:31:51;5.55;;;3.97;;
69771;SDS011;57046;45.988;18.664;2022-07-26T09:34:23;4.13;;;3.73;;
69771;SDS011;57046;45.988;18.664;2022-07-26T09:36:50;6.15;;;3.97;;
69771;SDS011;57046;45.988;18.664;2022-07-26T09:39:16;4.25;;;3.72;;
69771;SDS011;57046;45.988;18.664;2022-07-26T09:41:42;10.65;;;3.92;;
69771;SDS011;57046;45.988;18.664;2022-07-26T09:44:24;5.93;;;3.80;;
69771;SDS011;57046;45.988;18.664;2022-07-26T09:46:54;5.25;;;3.83;;
69771;SDS011;57046;45.988;18.664;2022-07-26T09:49:21;4.13;;;3.72;;
69771;SDS011;57046;45.988;18.664;2022-07-26T09:51:50;7.70;;;4.20;;
69771;SDS011;57046;45.988;18.664;2022-07-26T09:54:30;5.60;;;3.60;;
69771;SDS011;57046;45.988;18.664;2022-07-26T09:56:57;7.07;;;3.60;;
69771;SDS011;57046;45.988;18.664;2022-07-26T09:59:23;7.67;;;3.83;;
69771;SDS011;57046;45.988;18.664;2022-07-26T10:01:50;8.13;;;3.92;;
69771;SDS011;57046;45.988;18.664;2022-07-26T10:04:17;4.50;;;3.47;;
69771;SDS011;57046;45.988;18.664;2022-07-26T10:06:43;4.53;;;3.40;;
69771;SDS011;57046;45.988;18.664;2022-07-26T10:09:09;5.80;;;3.42;;
69771;SDS011;57046;45.988;18.664;2022-07-26T10:11:37;4.88;;;3.90;;
69771;SDS011;57046;45.988;18.664;2022-07-26T10:15:05;3.75;;;3.38;;
69771;SDS011;57046;45.988;18.664;2022-07-26T10:16:59;7.47;;;3.50;;
69771;SDS011;57046;45.988;18.664;2022-07-26T10:19:40;5.30;;;3.30;;
69771;SDS011;57046;45.988;18.664;2022-07-26T10:22:25;3.80;;;3.10;;
69771;SDS011;57046;45.988;18.664;2022-07-26T10:24:54;3.85;;;3.25;;
69771;SDS011;57046;45.988;18.664;2022-07-26T10:27:35;4.32;;;3.58;;
69771;SDS011;57046;45.988;18.664;2022-07-26T10:32:56;7.63;;;3.67;;
69771;SDS011;57046;45.988;18.664;2022-07-26T10:38:08;6.63;;;4.17;;
69771;SDS011;57046;45.988;18.664;2022-07-26T10:40:36;4.90;;;3.42;;
69771;SDS011;57046;45.988;18.664;2022-07-26T10:43:10;5.28;;;4.03;;
69771;SDS011;57046;45.988;18.664;2022-07-26T10:45:37;7.85;;;3.65;;
69771;SDS011;57046;45.988;18.664;2022-07-26T10:50:43;8.63;;;3.80;;
69771;SDS011;57046;45.988;18.664;2022-07-26T10:53:15;8.53;;;4.17;;
69771;SDS011;57046;45.988;18.664;2022-07-26T10:55:46;6.70;;;3.90;;
69771;SDS011;57046;45.988;18.664;2022-07-26T10:58:16;7.00;;;4.28;;
69771;SDS011;57046;45.988;18.664;2022-07-26T11:00:52;4.95;;;3.85;;
69771;SDS011;57046;45.988;18.664;2022-07-26T11:03:33;5.00;;;3.83;;
69771;SDS011;57046;45.988;18.664;2022-07-26T11:06:07;4.38;;;3.80;;
69771;SDS011;57046;45.988;18.664;2022-07-26T11:08:34;7.53;;;4.05;;
69771;SDS011;57046;45.988;18.664;2022-07-26T11:11:00;6.13;;;3.50;;
69771;SDS011;57046;45.988;18.664;2022-07-26T11:13:25;4.33;;;3.93;;
69771;SDS011;57046;45.988;18.664;2022-07-26T11:15:57;8.87;;;3.60;;
69771;SDS011;57046;45.988;18.664;2022-07-26T11:18:26;6.35;;;4.18;;
69771;SDS011;57046;45.988;18.664;2022-07-26T11:20:53;9.02;;;4.18;;
69771;SDS011;57046;45.988;18.664;2022-07-26T11:23:33;6.60;;;3.92;;
69771;SDS011;57046;45.988;18.664;2022-07-26T11:26:03;6.10;;;3.77;;
69771;SDS011;57046;45.988;18.664;2022-07-26T11:28:29;6.43;;;4.20;;
69771;SDS011;57046;45.988;18.664;2022-07-26T11:31:09;6.38;;;3.47;;
69771;SDS011;57046;45.988;18.664;2022-07-26T11:33:35;8.68;;;3.85;;
69771;SDS011;57046;45.988;18.664;2022-07-26T11:36:00;5.67;;;3.83;;
69771;SDS011;57046;45.988;18.664;2022-07-26T11:38:41;7.53;;;3.30;;
69771;SDS011;57046;45.988;18.664;2022-07-26T11:41:11;4.93;;;3.35;;
69771;SDS011;57046;45.988;18.664;2022-07-26T11:43:37;4.03;;;3.63;;
69771;SDS011;57046;45.988;18.664;2022-07-26T11:46:03;5.10;;;3.60;;
69771;SDS011;57046;45.988;18.664;2022-07-26T11:48:30;7.77;;;3.60;;
69771;SDS011;57046;45.988;18.664;2022-07-26T11:51:11;5.47;;;3.83;;
69771;SDS011;57046;45.988;18.664;2022-07-26T11:53:38;4.82;;;3.55;;
69771;SDS011;57046;45.988;18.664;2022-07-26T11:56:11;6.88;;;3.58;;
69771;SDS011;57046;45.988;18.664;2022-07-26T11:58:42;5.67;;;3.40;;
69771;SDS011;57046;45.988;18.664;2022-07-26T12:01:09;4.97;;;3.90;;
69771;SDS011;57046;45.988;18.664;2022-07-26T12:03:37;5.40;;;3.35;;
69771;SDS011;57046;45.988;18.664;2022-07-26T12:06:07;6.35;;;3.88;;
69771;SDS011;57046;45.988;18.664;2022-07-26T12:08:44;6.10;;;4.03;;
69771;SDS011;57046;45.988;18.664;2022-07-26T12:11:18;4.22;;;3.40;;
69771;SDS011;57046;45.988;18.664;2022-07-26T12:13:58;6.18;;;3.65;;
69771;SDS011;57046;45.988;18.664;2022-07-26T12:19:21;9.80;;;3.20;;
69771;SDS011;57046;45.988;18.664;2022-07-26T12:21:51;4.57;;;2.97;;
69771;SDS011;57046;45.988;18.664;2022-07-26T12:29:55;6.70;;;3.42;;
69771;SDS011;57046;45.988;18.664;2022-07-26T12:32:41;9.10;;;3.00;;
69771;SDS011;57046;45.988;18.664;2022-07-26T12:35:11;5.65;;;3.10;;
69771;SDS011;57046;45.988;18.664;2022-07-26T12:40:12;7.13;;;3.20;;
69771;SDS011;57046;45.988;18.664;2022-07-26T12:42:39;4.38;;;3.40;;
69771;SDS011;57046;45.988;18.664;2022-07-26T12:45:07;5.37;;;3.50;;
69771;SDS011;57046;45.988;18.664;2022-07-26T12:47:34;6.60;;;3.50;;
69771;SDS011;57046;45.988;18.664;2022-07-26T12:50:00;6.20;;;3.50;;
69771;SDS011;57046;45.988;18.664;2022-07-26T12:52:27;6.35;;;3.22;;
69771;SDS011;57046;45.988;18.664;2022-07-26T12:54:53;4.25;;;3.17;;
69771;SDS011;57046;45.988;18.664;2022-07-26T12:57:19;3.20;;;2.73;;
69771;SDS011;57046;45.988;18.664;2022-07-26T12:59:45;7.00;;;2.90;;
69771;SDS011;57046;45.988;18.664;2022-07-26T13:02:11;3.42;;;3.10;;
69771;SDS011;57046;45.988;18.664;2022-07-26T13:04:37;7.35;;;3.42;;
69771;SDS011;57046;45.988;18.664;2022-07-26T13:07:03;3.58;;;3.08;;
69771;SDS011;57046;45.988;18.664;2022-07-26T13:09:29;3.73;;;2.70;;
69771;SDS011;57046;45.988;18.664;2022-07-26T13:11:55;4.17;;;3.00;;
69771;SDS011;57046;45.988;18.664;2022-07-26T13:14:21;5.43;;;2.80;;
69771;SDS011;57046;45.988;18.664;2022-07-26T13:16:47;4.05;;;2.90;;
69771;SDS011;57046;45.988;18.664;2022-07-26T13:19:13;3.37;;;3.00;;
69771;SDS011;57046;45.988;18.664;2022-07-26T13:21:38;5.45;;;3.33;;
69771;SDS011;57046;45.988;18.664;2022-07-26T13:24:04;4.27;;;3.17;;
69771;SDS011;57046;45.988;18.664;2022-07-26T13:26:30;6.18;;;3.60;;
69771;SDS011;57046;45.988;18.664;2022-07-26T13:28:56;4.43;;;3.00;;
69771;SDS011;57046;45.988;18.664;2022-07-26T13:31:22;3.80;;;3.50;;
69771;SDS011;57046;45.988;18.664;2022-07-26T13:33:48;3.80;;;3.15;;
69771;SDS011;57046;45.988;18.664;2022-07-26T13:36:13;4.50;;;3.25;;
69771;SDS011;57046;45.988;18.664;2022-07-26T13:38:39;5.80;;;3.43;;
69771;SDS011;57046;45.988;18.664;2022-07-26T13:41:07;4.90;;;3.40;;
69771;SDS011;57046;45.988;18.664;2022-07-26T13:43:33;4.07;;;3.25;;
69771;SDS011;57046;45.988;18.664;2022-07-26T13:45:59;4.10;;;3.20;;
69771;SDS011;57046;45.988;18.664;2022-07-26T13:48:24;3.85;;;2.90;;
69771;SDS011;57046;45.988;18.664;2022-07-26T13:50:49;4.70;;;2.93;;
69771;SDS011;57046;45.988;18.664;2022-07-26T13:53:15;3.73;;;3.03;;
69771;SDS011;57046;45.988;18.664;2022-07-26T13:55:40;3.10;;;2.63;;
69771;SDS011;57046;45.988;18.664;2022-07-26T13:58:05;3.78;;;2.83;;
69771;SDS011;57046;45.988;18.664;2022-07-26T14:00:31;3.87;;;2.83;;
69771;SDS011;57046;45.988;18.664;2022-07-26T14:02:56;3.90;;;3.30;;
69771;SDS011;57046;45.988;18.664;2022-07-26T14:05:23;3.47;;;3.17;;
69771;SDS011;57046;45.988;18.664;2022-07-26T14:07:49;3.42;;;3.13;;
69771;SDS011;57046;45.988;18.664;2022-07-26T14:10:14;3.27;;;2.57;;
69771;SDS011;57046;45.988;18.664;2022-07-26T14:12:40;3.35;;;2.60;;
69771;SDS011;57046;45.988;18.664;2022-07-26T14:15:05;4.47;;;2.47;;
69771;SDS011;57046;45.988;18.664;2022-07-26T14:17:31;4.70;;;2.97;;
69771;SDS011;57046;45.988;18.664;2022-07-26T14:19:56;3.30;;;2.93;;
69771;SDS011;57046;45.988;18.664;2022-07-26T14:22:21;3.33;;;2.72;;
69771;SDS011;57046;45.988;18.664;2022-07-26T14:24:47;4.30;;;2.87;;
69771;SDS011;57046;45.988;18.664;2022-07-26T14:27:12;3.43;;;3.00;;
69771;SDS011;57046;45.988;18.664;2022-07-26T14:29:37;4.23;;;2.80;;
69771;SDS011;57046;45.988;18.664;2022-07-26T14:32:03;6.77;;;3.23;;
69771;SDS011;57046;45.988;18.664;2022-07-26T14:34:28;4.05;;;3.63;;
69771;SDS011;57046;45.988;18.664;2022-07-26T14:36:53;3.13;;;2.83;;
69771;SDS011;57046;45.988;18.664;2022-07-26T14:39:19;4.93;;;3.30;;
69771;SDS011;57046;45.988;18.664;2022-07-26T14:41:44;4.00;;;3.33;;
69771;SDS011;57046;45.988;18.664;2022-07-26T14:44:11;3.88;;;3.03;;
69771;SDS011;57046;45.988;18.664;2022-07-26T14:46:36;6.03;;;3.23;;
69771;SDS011;57046;45.988;18.664;2022-07-26T14:49:01;4.73;;;2.60;;
69771;SDS011;57046;45.988;18.664;2022-07-26T14:51:27;4.00;;;2.77;;